Time;durP1;ratioP1;P1;durP2;ratioP2;P2;SDS_P1;SDS_P2;PMS_P1;PMS_P2;Temp;Humidity;BMP_temperature;BMP_pressure;BME280_temperature;BME280_humidity;BME280_pressure;Samples;Min_cycle;Max_cycle;Signal;HPM_P1;HPM_P2
2023/01/30 00:01:16;;;;;;;10.90;5.73;;;-1.50;99.90;;;;;;4227891;28;20341;-61
2023/01/30 00:03:18;;;;;;;11.57;6.13;;;-1.50;99.90;;;;;;4228613;28;20264;-61
2023/01/30 00:05:19;;;;;;;13.97;6.80;;;-1.50;99.90;;;;;;4226525;28;20756;-65
2023/01/30 00:07:20;;;;;;;17.03;7.83;;;-1.50;99.90;;;;;;4228833;28;20260;-66
2023/01/30 00:09:21;;;;;;;12.67;6.43;;;-1.50;99.90;;;;;;4227988;28;20284;-61
2023/01/30 00:11:23;;;;;;;11.87;6.57;;;-1.50;99.90;;;;;;4228411;28;20303;-63
2023/01/30 00:13:24;;;;;;;14.53;6.90;;;-1.50;99.90;;;;;;4226952;28;20280;-64
2023/01/30 00:15:25;;;;;;;13.20;6.77;;;-1.50;99.90;;;;;;4227848;28;20284;-62
2023/01/30 00:17:26;;;;;;;16.27;6.43;;;-1.50;99.90;;;;;;4227503;28;20260;-59
2023/01/30 00:19:28;;;;;;;14.17;5.57;;;-1.50;99.90;;;;;;4229047;28;20670;-62
2023/01/30 00:21:29;;;;;;;11.63;5.57;;;-1.50;99.90;;;;;;4227730;28;20256;-62
2023/01/30 00:23:33;;;;;;;10.03;5.20;;;-1.50;99.90;;;;;;4228647;28;20272;-62
2023/01/30 00:25:34;;;;;;;10.07;5.53;;;-1.50;99.90;;;;;;4227863;28;20309;-61
2023/01/30 00:27:35;;;;;;;9.97;5.33;;;-1.50;99.90;;;;;;4227357;28;20279;-62
2023/01/30 00:29:37;;;;;;;10.77;5.63;;;-1.50;99.90;;;;;;4209212;28;20292;-62
2023/01/30 00:31:38;;;;;;;12.23;6.80;;;-1.50;99.90;;;;;;4227304;28;20349;-61
2023/01/30 00:33:39;;;;;;;11.43;6.30;;;-1.50;99.90;;;;;;4228430;28;20330;-61
2023/01/30 00:35:48;;;;;;;12.63;5.53;;;-1.40;99.90;;;;;;4226675;28;20816;-61
2023/01/30 00:37:49;;;;;;;12.40;5.63;;;-1.40;99.90;;;;;;4227908;28;20736;-60
2023/01/30 00:39:50;;;;;;;10.13;5.37;;;-1.50;99.90;;;;;;4226126;28;20260;-63
2023/01/30 00:48:52;;;;;;;10.57;4.97;;;-1.40;99.90;;;;;;4226907;28;20372;-61
2023/01/30 00:50:54;;;;;;;13.50;6.50;;;-1.40;99.90;;;;;;4209862;28;20294;-63
2023/01/30 00:52:55;;;;;;;10.33;5.20;;;-1.40;99.90;;;;;;4227298;28;20271;-63
2023/01/30 00:54:56;;;;;;;12.53;5.50;;;-1.40;99.90;;;;;;4228197;28;20276;-61
2023/01/30 00:56:57;;;;;;;12.70;5.83;;;-1.30;99.90;;;;;;4226724;28;20739;-60
2023/01/30 00:58:58;;;;;;;9.60;5.70;;;-1.40;99.90;;;;;;4227040;28;20333;-61
2023/01/30 01:00:59;;;;;;;9.80;4.67;;;-1.30;99.90;;;;;;4227220;28;20728;-61
2023/01/30 01:03:01;;;;;;;11.10;5.57;;;-1.40;99.90;;;;;;4228308;28;20264;-64
2023/01/30 01:05:02;;;;;;;9.67;4.77;;;-1.40;99.90;;;;;;4227011;28;20353;-65
2023/01/30 01:07:03;;;;;;;14.73;6.50;;;-1.30;99.90;;;;;;4228378;28;20268;-61
2023/01/30 01:09:05;;;;;;;11.73;5.83;;;-1.40;99.90;;;;;;4226445;28;20820;-65
2023/01/30 01:11:06;;;;;;;12.27;5.80;;;-1.30;99.90;;;;;;4228153;28;20325;-61
2023/01/30 01:13:09;;;;;;;10.27;4.87;;;-1.30;99.90;;;;;;4226296;28;20292;-66
2023/01/30 01:15:12;;;;;;;12.00;5.30;;;-1.30;99.90;;;;;;4227011;28;20804;-62
2023/01/30 01:17:13;;;;;;;11.20;5.50;;;-1.30;99.90;;;;;;4227639;28;20264;-60
2023/01/30 01:19:14;;;;;;;10.47;5.47;;;-1.30;99.90;;;;;;4227013;28;20328;-65
2023/01/30 01:21:16;;;;;;;8.97;5.13;;;-1.30;99.90;;;;;;4227712;28;20264;-63
2023/01/30 01:23:17;;;;;;;11.03;5.60;;;-1.30;99.90;;;;;;4226452;28;20650;-60
2023/01/30 01:25:19;;;;;;;11.50;5.97;;;-1.30;99.90;;;;;;4227741;28;20318;-61
2023/01/30 01:27:20;;;;;;;14.93;6.37;;;-1.40;99.90;;;;;;4226590;28;20694;-61
2023/01/30 01:29:21;;;;;;;12.33;5.83;;;-1.30;99.90;;;;;;4228068;28;20342;-62
2023/01/30 01:31:23;;;;;;;13.17;6.47;;;-1.30;99.90;;;;;;4226556;28;20256;-65
2023/01/30 01:33:27;;;;;;;12.57;5.97;;;-1.30;99.90;;;;;;4227039;28;20276;-61
2023/01/30 01:35:28;;;;;;;10.17;5.53;;;-1.30;99.90;;;;;;4226853;28;20329;-61
2023/01/30 01:37:29;;;;;;;11.10;6.33;;;-1.30;99.90;;;;;;4227313;28;20381;-60
2023/01/30 01:41:50;;;;;;;10.87;5.67;;;-1.30;99.90;;;;;;4227759;28;20688;-62
2023/01/30 01:44:12;;;;;;;11.10;5.87;;;-1.30;99.90;;;;;;4226610;28;20325;-62
2023/01/30 01:46:22;;;;;;;15.43;7.03;;;-1.30;99.90;;;;;;4228073;28;20256;-61
2023/01/30 01:48:30;;;;;;;17.02;6.80;;;-1.30;99.90;;;;;;4226411;28;20341;-62
2023/01/30 01:50:42;;;;;;;13.77;6.87;;;-1.30;99.90;;;;;;4227088;28;20043;-62
2023/01/30 01:52:45;;;;;;;16.47;7.07;;;-1.30;99.90;;;;;;4226673;28;20268;-63
2023/01/30 01:54:52;;;;;;;18.03;7.27;;;-1.30;99.90;;;;;;4227936;28;20280;-62
2023/01/30 01:56:54;;;;;;;13.80;6.33;;;-1.30;99.90;;;;;;4226556;28;20329;-62
2023/01/30 01:58:59;;;;;;;14.60;7.43;;;-1.30;99.90;;;;;;4226843;28;20352;-65
2023/01/30 02:01:00;;;;;;;12.63;6.47;;;-1.30;99.90;;;;;;4227089;28;20313;-63
2023/01/30 02:03:06;;;;;;;13.33;6.37;;;-1.30;99.90;;;;;;4230546;28;20267;-62
2023/01/30 02:05:10;;;;;;;13.60;7.00;;;-1.30;99.90;;;;;;4229324;28;20271;-62
2023/01/30 02:07:11;;;;;;;13.80;6.40;;;-1.40;99.90;;;;;;4229561;28;20280;-62
2023/01/30 02:09:12;;;;;;;15.17;7.60;;;-1.40;99.90;;;;;;4230136;28;20313;-67
2023/01/30 02:11:41;;;;;;;13.90;7.20;;;-1.40;99.90;;;;;;4229386;28;20798;-68
2023/01/30 02:13:45;;;;;;;16.63;6.60;;;-1.40;99.90;;;;;;4230090;28;20306;-64
2023/01/30 02:15:46;;;;;;;15.77;7.40;;;-1.40;99.90;;;;;;4230174;28;20264;-63
2023/01/30 02:17:47;;;;;;;13.00;6.57;;;-1.40;99.90;;;;;;4230038;28;20272;-66
2023/01/30 02:20:25;;;;;;;12.80;6.60;;;-1.40;99.90;;;;;;4229674;28;20260;-63
2023/01/30 02:23:03;;;;;;;13.33;6.93;;;-1.40;99.90;;;;;;4229839;28;20364;-62
2023/01/30 02:25:47;;;;;;;15.20;7.07;;;-1.40;99.90;;;;;;4230667;28;20267;-64
2023/01/30 02:28:07;;;;;;;15.53;6.97;;;-1.40;99.90;;;;;;4228341;28;20321;-61
2023/01/30 02:30:22;;;;;;;13.03;6.43;;;-1.40;99.90;;;;;;4229430;28;20300;-62
2023/01/30 02:32:40;;;;;;;13.53;6.77;;;-1.30;99.90;;;;;;4229017;28;20280;-66
2023/01/30 02:35:07;;;;;;;16.33;6.77;;;-1.40;99.90;;;;;;4230306;28;20288;-62
2023/01/30 02:37:20;;;;;;;14.97;7.47;;;-1.30;99.90;;;;;;4176323;28;20354;-65
2023/01/30 02:39:37;;;;;;;14.97;7.37;;;-1.40;99.90;;;;;;4213111;28;20310;-61
2023/01/30 02:42:07;;;;;;;16.53;8.03;;;-1.50;99.90;;;;;;4218054;28;20276;-61
2023/01/30 02:44:28;;;;;;;18.35;8.23;;;-1.60;99.90;;;;;;4188560;28;20701;-59
2023/01/30 02:46:42;;;;;;;15.68;7.10;;;-1.60;99.90;;;;;;4230481;28;20024;-65
2023/01/30 02:48:58;;;;;;;16.93;6.93;;;-1.60;99.90;;;;;;4228154;28;20195;-62
2023/01/30 02:51:10;;;;;;;16.13;7.80;;;-1.50;99.90;;;;;;4229560;28;20299;-66
2023/01/30 02:53:12;;;;;;;13.70;7.27;;;-1.50;99.90;;;;;;4229229;28;20268;-65
2023/01/30 02:55:25;;;;;;;14.83;7.87;;;-1.40;99.90;;;;;;4211864;28;20281;-63
2023/01/30 02:57:26;;;;;;;14.80;7.50;;;-1.40;99.90;;;;;;4228515;28;20809;-62
2023/01/30 02:59:43;;;;;;;14.73;7.80;;;-1.40;99.90;;;;;;4230210;28;20271;-65
2023/01/30 03:02:04;;;;;;;17.17;8.33;;;-1.30;99.90;;;;;;4227705;28;20293;-64
2023/01/30 03:04:25;;;;;;;15.57;7.28;;;-1.30;99.90;;;;;;4228852;28;20291;-62
2023/01/30 03:06:41;;;;;;;18.50;7.23;;;-1.30;99.90;;;;;;4228356;28;20036;-62
2023/01/30 03:08:48;;;;;;;15.83;7.37;;;-1.30;99.90;;;;;;4229722;28;21181;-62
2023/01/30 03:11:01;;;;;;;18.30;8.33;;;-1.30;99.90;;;;;;4228553;28;21195;-64
2023/01/30 03:13:05;;;;;;;19.00;7.60;;;-1.30;99.90;;;;;;4229639;28;20288;-62
2023/01/30 03:15:15;;;;;;;17.80;8.13;;;-1.30;99.90;;;;;;4228874;28;20329;-64
2023/01/30 03:17:19;;;;;;;14.90;7.50;;;-1.30;99.90;;;;;;4230108;28;20333;-61
2023/01/30 03:19:21;;;;;;;15.60;7.73;;;-1.30;99.90;;;;;;4227540;28;20100;-60
2023/01/30 03:21:22;;;;;;;18.00;8.07;;;-1.30;99.90;;;;;;4213017;28;20257;-62
2023/01/30 03:23:23;;;;;;;16.93;7.47;;;-1.30;99.90;;;;;;4211804;28;20737;-62
2023/01/30 03:25:28;;;;;;;18.10;8.57;;;-1.30;99.90;;;;;;4212924;28;20594;-61
2023/01/30 03:27:29;;;;;;;15.70;9.00;;;-1.30;99.90;;;;;;4223906;28;20617;-61
2023/01/30 03:29:30;;;;;;;17.27;8.10;;;-1.30;99.90;;;;;;4210753;28;20318;-63
2023/01/30 03:31:32;;;;;;;15.60;8.10;;;-1.30;99.90;;;;;;4228431;28;20303;-63
2023/01/30 03:33:33;;;;;;;16.67;8.10;;;-1.30;99.90;;;;;;4228949;28;20317;-59
2023/01/30 03:35:34;;;;;;;19.57;8.77;;;-1.20;99.90;;;;;;4229136;28;20260;-61
2023/01/30 03:37:35;;;;;;;18.73;8.27;;;-1.30;99.90;;;;;;4228467;28;20313;-60
2023/01/30 03:39:36;;;;;;;18.00;7.80;;;-1.30;99.90;;;;;;4229395;28;20374;-65
2023/01/30 03:41:38;;;;;;;18.63;8.87;;;-1.30;99.90;;;;;;4228121;28;20275;-67
2023/01/30 03:43:39;;;;;;;17.63;8.30;;;-1.30;99.90;;;;;;4229326;28;21005;-63
2023/01/30 03:45:40;;;;;;;17.37;8.00;;;-1.30;99.90;;;;;;4227567;28;20318;-64
2023/01/30 03:47:41;;;;;;;16.70;7.50;;;-1.30;99.90;;;;;;4229165;28;20264;-64
2023/01/30 03:49:42;;;;;;;16.53;7.93;;;-1.30;99.90;;;;;;4227079;28;20276;-61
2023/01/30 03:51:43;;;;;;;23.17;8.83;;;-1.30;99.90;;;;;;4229226;28;20635;-62
2023/01/30 03:53:45;;;;;;;19.50;9.30;;;-1.30;99.90;;;;;;4227922;28;20673;-61
2023/01/30 03:55:46;;;;;;;18.43;8.60;;;-1.30;99.90;;;;;;4229256;28;20329;-61
2023/01/30 03:57:47;;;;;;;19.80;8.60;;;-1.30;99.90;;;;;;4226559;28;20276;-62
2023/01/30 03:59:48;;;;;;;20.47;9.00;;;-1.30;99.90;;;;;;4228764;28;20271;-61
2023/01/30 04:01:49;;;;;;;15.80;7.90;;;-1.30;99.90;;;;;;4228093;28;20272;-63
2023/01/30 04:03:50;;;;;;;15.07;7.20;;;-1.30;99.90;;;;;;4226498;28;20279;-65
2023/01/30 04:05:51;;;;;;;17.50;7.97;;;-1.40;99.90;;;;;;4228719;28;20661;-60
2023/01/30 04:07:56;;;;;;;19.13;8.40;;;-1.40;99.90;;;;;;4227661;28;20275;-63
2023/01/30 04:09:57;;;;;;;19.17;8.43;;;-1.40;99.90;;;;;;4227916;28;20264;-62
2023/01/30 04:11:58;;;;;;;20.90;9.13;;;-1.40;99.90;;;;;;4226443;28;20326;-60
2023/01/30 04:13:59;;;;;;;19.50;8.87;;;-1.50;99.90;;;;;;4228221;28;20280;-66
2023/01/30 04:16:33;;;;;;;19.30;8.90;;;-1.60;99.90;;;;;;4227129;28;20264;-64
2023/01/30 04:18:34;;;;;;;20.30;8.07;;;-1.60;99.90;;;;;;4177311;28;21067;-61
2023/01/30 04:20:37;;;;;;;15.77;8.27;;;-1.60;99.90;;;;;;4202706;28;20284;-62
2023/01/30 04:22:38;;;;;;;20.73;8.97;;;-1.70;99.90;;;;;;4228657;28;20268;-63
2023/01/30 04:24:39;;;;;;;19.97;8.17;;;-1.70;99.90;;;;;;4207915;28;20293;-66
2023/01/30 04:26:41;;;;;;;18.83;9.00;;;-1.70;99.90;;;;;;4228533;28;20288;-65
2023/01/30 04:28:43;;;;;;;19.80;9.10;;;-1.70;99.90;;;;;;4227287;28;20751;-64
2023/01/30 04:30:44;;;;;;;21.20;8.87;;;-1.70;99.90;;;;;;4228016;28;20288;-64
2023/01/30 04:32:45;;;;;;;19.00;8.97;;;-1.60;99.90;;;;;;4226232;28;20272;-65
2023/01/30 04:34:46;;;;;;;17.23;7.70;;;-1.60;99.90;;;;;;4228074;28;20356;-61
2023/01/30 04:36:47;;;;;;;16.93;8.00;;;-1.70;99.90;;;;;;4226141;28;20288;-61
2023/01/30 04:38:49;;;;;;;20.67;8.63;;;-1.70;99.90;;;;;;4224311;28;20352;-63
2023/01/30 04:40:55;;;;;;;19.67;9.37;;;-1.70;99.90;;;;;;4210454;28;20252;-64
2023/01/30 04:42:56;;;;;;;19.53;9.43;;;-1.70;99.90;;;;;;4208490;28;20328;-67
2023/01/30 04:44:57;;;;;;;20.27;9.93;;;-1.70;99.90;;;;;;4227639;28;20301;-67
2023/01/30 04:46:58;;;;;;;23.77;9.63;;;-1.70;99.90;;;;;;4227811;28;20275;-67
2023/01/30 04:48:59;;;;;;;20.07;9.60;;;-1.70;99.90;;;;;;4227893;28;20309;-62
2023/01/30 04:51:01;;;;;;;22.27;10.47;;;-1.70;99.90;;;;;;4227276;28;20276;-64
2023/01/30 04:53:02;;;;;;;19.83;9.63;;;-1.80;99.90;;;;;;4227373;28;20260;-62
2023/01/30 04:55:03;;;;;;;19.67;9.67;;;-1.80;99.90;;;;;;4210714;28;20261;-63
2023/01/30 04:57:04;;;;;;;20.80;9.13;;;-1.70;99.90;;;;;;4211473;28;20268;-61
2023/01/30 04:59:05;;;;;;;17.03;8.80;;;-1.70;99.90;;;;;;4210085;28;20773;-63
2023/01/30 05:01:29;;;;;;;19.43;8.57;;;-1.80;99.90;;;;;;4219536;28;20280;-61
2023/01/30 05:03:30;;;;;;;17.43;8.07;;;-1.90;99.90;;;;;;4220779;28;20698;-61
2023/01/30 05:05:33;;;;;;;15.63;7.47;;;-1.80;99.90;;;;;;4225883;28;20348;-63
2023/01/30 05:07:34;;;;;;;19.87;9.30;;;-1.90;99.90;;;;;;4226389;28;20847;-64
2023/01/30 05:09:35;;;;;;;17.43;8.73;;;-1.80;99.90;;;;;;4228042;28;20283;-63
2023/01/30 05:11:36;;;;;;;22.07;9.00;;;-1.80;99.90;;;;;;4224650;28;20303;-59
2023/01/30 05:13:37;;;;;;;27.53;11.30;;;-1.80;99.90;;;;;;4227866;28;20309;-61
2023/01/30 05:15:39;;;;;;;25.17;11.20;;;-1.90;99.90;;;;;;4226522;28;20259;-59
2023/01/30 05:17:40;;;;;;;22.73;10.67;;;-1.80;99.90;;;;;;4227409;28;20808;-66
2023/01/30 05:19:41;;;;;;;29.77;11.97;;;-1.80;99.90;;;;;;4226682;28;20631;-58
2023/01/30 05:21:42;;;;;;;24.80;11.10;;;-1.90;99.90;;;;;;4227121;28;20333;-60
2023/01/30 05:23:44;;;;;;;24.10;11.53;;;-1.90;99.90;;;;;;4226519;28;20310;-61
2023/01/30 05:25:45;;;;;;;24.50;10.87;;;-1.90;99.90;;;;;;4227076;28;20260;-60
2023/01/30 05:27:46;;;;;;;26.83;10.57;;;-1.90;99.90;;;;;;4227065;28;20317;-60
2023/01/30 05:29:47;;;;;;;25.77;11.20;;;-1.80;99.90;;;;;;4226256;28;20337;-60
2023/01/30 05:31:48;;;;;;;27.40;10.87;;;-1.80;99.90;;;;;;4226474;28;20300;-60
2023/01/30 05:33:51;;;;;;;30.83;11.57;;;-1.80;99.90;;;;;;4226526;28;20280;-61
2023/01/30 05:35:52;;;;;;;23.57;10.73;;;-1.80;99.90;;;;;;4230981;28;20329;-68
2023/01/30 05:37:53;;;;;;;27.13;11.83;;;-1.80;99.90;;;;;;4229505;28;20341;-61
2023/01/30 05:39:54;;;;;;;19.10;9.63;;;-1.80;99.90;;;;;;4230778;28;20831;-60
2023/01/30 05:41:55;;;;;;;24.97;10.93;;;-1.90;99.90;;;;;;4228711;28;20276;-62
2023/01/30 05:43:57;;;;;;;18.97;8.17;;;-1.90;99.90;;;;;;4229757;28;20333;-59
2023/01/30 05:46:00;;;;;;;222.93;91.80;;;-1.90;99.90;;;;;;4229520;28;20332;-60
2023/01/30 05:48:01;;;;;;;29.70;15.70;;;-1.90;99.90;;;;;;4230931;28;20264;-67
2023/01/30 05:50:03;;;;;;;37.53;17.37;;;-1.80;99.90;;;;;;4229890;28;20601;-61
2023/01/30 05:52:04;;;;;;;30.10;16.90;;;-1.90;99.90;;;;;;4229894;28;20774;-57
2023/01/30 05:54:05;;;;;;;37.50;21.53;;;-1.80;99.90;;;;;;4211688;28;20326;-61
2023/01/30 05:56:07;;;;;;;33.27;19.57;;;-1.80;99.90;;;;;;4229907;28;20727;-59
2023/01/30 05:58:09;;;;;;;20.57;10.97;;;-1.80;99.90;;;;;;4230548;28;20268;-65
2023/01/30 06:00:11;;;;;;;26.23;15.67;;;-1.70;99.90;;;;;;4228899;28;20722;-61
2023/01/30 06:02:12;;;;;;;18.30;8.70;;;-1.70;99.90;;;;;;4229877;28;20268;-65
2023/01/30 06:04:14;;;;;;;17.23;8.67;;;-1.70;99.90;;;;;;4228675;28;20301;-61
2023/01/30 06:06:15;;;;;;;17.93;7.17;;;-1.70;99.90;;;;;;4230577;28;20348;-60
2023/01/30 06:08:16;;;;;;;19.23;8.40;;;-1.70;99.90;;;;;;4229187;28;20309;-62
2023/01/30 06:10:17;;;;;;;26.73;14.87;;;-1.70;99.90;;;;;;4230468;28;20260;-61
2023/01/30 06:12:19;;;;;;;26.10;15.70;;;-1.70;99.90;;;;;;4229089;28;20280;-60
2023/01/30 06:14:20;;;;;;;19.10;8.77;;;-1.70;99.90;;;;;;4230243;28;20317;-64
2023/01/30 06:16:21;;;;;;;15.47;7.07;;;-1.70;99.90;;;;;;4228871;28;20329;-60
2023/01/30 06:18:22;;;;;;;24.43;8.17;;;-1.70;99.90;;;;;;4229910;28;20736;-68
2023/01/30 06:20:24;;;;;;;16.67;7.90;;;-1.70;99.90;;;;;;4228757;28;20674;-60
2023/01/30 06:22:25;;;;;;;20.93;8.27;;;-1.70;99.90;;;;;;4230156;28;20318;-63
2023/01/30 06:24:26;;;;;;;27.63;11.17;;;-1.70;99.90;;;;;;4229685;28;20600;-61
2023/01/30 06:26:27;;;;;;;55.47;20.40;;;-1.70;99.90;;;;;;4229833;28;20264;-68
2023/01/30 06:28:28;;;;;;;43.50;16.30;;;-1.80;99.90;;;;;;4229217;28;20717;-61
2023/01/30 06:30:29;;;;;;;38.97;15.80;;;-1.80;99.90;;;;;;4228704;28;20264;-62
2023/01/30 06:32:30;;;;;;;40.83;16.00;;;-1.80;99.90;;;;;;4230261;28;20248;-64
2023/01/30 06:34:31;;;;;;;38.60;14.33;;;-1.80;99.90;;;;;;4228262;28;20594;-61
2023/01/30 06:36:32;;;;;;;29.77;11.83;;;-1.80;99.90;;;;;;4230203;28;20256;-66
2023/01/30 06:38:34;;;;;;;24.20;12.13;;;-1.70;99.90;;;;;;4210233;28;20264;-60
2023/01/30 06:40:36;;;;;;;23.40;10.93;;;-1.70;99.90;;;;;;4230353;28;20325;-61
2023/01/30 06:42:37;;;;;;;25.97;12.10;;;-1.70;99.90;;;;;;4228951;28;20264;-63
2023/01/30 06:44:38;;;;;;;24.90;12.93;;;-1.70;99.90;;;;;;4230318;28;20677;-59
2023/01/30 06:46:39;;;;;;;23.60;11.53;;;-1.70;99.90;;;;;;4227987;28;20320;-60
2023/01/30 06:48:40;;;;;;;19.80;10.53;;;-1.70;99.90;;;;;;4229823;28;20294;-64
2023/01/30 06:50:41;;;;;;;21.57;11.63;;;-1.70;99.90;;;;;;4228873;28;20325;-63
2023/01/30 06:52:47;;;;;;;31.97;13.57;;;-1.70;99.90;;;;;;4229615;28;20669;-65
2023/01/30 06:54:49;;;;;;;28.20;12.93;;;-1.70;99.90;;;;;;4229090;28;20293;-60
2023/01/30 06:56:50;;;;;;;32.43;13.80;;;-1.70;99.90;;;;;;4210680;28;20272;-60
2023/01/30 06:58:51;;;;;;;27.67;13.73;;;-1.70;99.90;;;;;;4229402;28;20797;-60
2023/01/30 07:00:53;;;;;;;26.00;11.53;;;-1.60;99.90;;;;;;4228131;28;20325;-65
2023/01/30 07:02:54;;;;;;;24.63;9.90;;;-1.70;99.90;;;;;;4228920;28;20264;-61
2023/01/30 07:04:55;;;;;;;23.83;10.90;;;-1.70;99.90;;;;;;4228589;28;20276;-63
2023/01/30 07:06:56;;;;;;;26.23;12.10;;;-1.70;99.90;;;;;;4230034;28;20611;-61
2023/01/30 07:08:58;;;;;;;22.77;10.33;;;-1.70;99.90;;;;;;4209506;28;20284;-64
2023/01/30 07:10:59;;;;;;;20.60;9.97;;;-1.70;99.90;;;;;;4229701;28;20918;-64
2023/01/30 07:13:00;;;;;;;19.70;8.90;;;-1.70;99.90;;;;;;4227797;28;20300;-65
2023/01/30 07:15:02;;;;;;;13.30;7.40;;;-1.60;99.90;;;;;;4211631;28;20318;-66
2023/01/30 07:17:03;;;;;;;13.50;6.53;;;-1.60;99.90;;;;;;4228411;28;20326;-67
2023/01/30 07:19:04;;;;;;;18.27;7.97;;;-1.60;99.90;;;;;;4228941;28;20260;-67
2023/01/30 07:21:05;;;;;;;16.67;7.60;;;-1.60;99.90;;;;;;4228333;28;20298;-65
2023/01/30 07:23:06;;;;;;;37.00;25.53;;;-1.50;99.90;;;;;;4229124;28;20318;-61
2023/01/30 07:25:08;;;;;;;20.00;10.83;;;-1.40;99.90;;;;;;4228401;28;20248;-60
2023/01/30 07:27:10;;;;;;;16.43;8.27;;;-1.40;99.90;;;;;;4228898;28;20317;-61
2023/01/30 07:29:12;;;;;;;14.23;6.97;;;-1.30;99.90;;;;;;4228721;28;20256;-63
2023/01/30 07:31:13;;;;;;;16.67;6.93;;;-1.30;99.90;;;;;;4228095;28;20292;-67
2023/01/30 07:33:14;;;;;;;11.80;6.73;;;-1.30;99.90;;;;;;4228250;28;20759;-62
2023/01/30 07:35:15;;;;;;;34.10;15.80;;;-1.30;99.90;;;;;;4228433;28;20396;-67
2023/01/30 07:37:16;;;;;;;29.77;13.60;;;-1.30;99.90;;;;;;4229400;28;20658;-63
2023/01/30 07:39:17;;;;;;;35.87;20.00;;;-1.20;99.90;;;;;;4228129;28;20727;-64
2023/01/30 07:41:18;;;;;;;39.23;18.97;;;-1.20;99.90;;;;;;4229245;28;20313;-61
2023/01/30 07:43:20;;;;;;;21.00;10.37;;;-1.10;99.90;;;;;;4209724;28;20341;-58
2023/01/30 07:45:21;;;;;;;15.90;7.87;;;-1.10;99.90;;;;;;4228201;28;20297;-62
2023/01/30 07:47:22;;;;;;;42.63;21.60;;;-1.00;99.90;;;;;;4226872;28;20364;-63
2023/01/30 07:49:24;;;;;;;34.83;17.20;;;-1.00;99.90;;;;;;4228856;28;20260;-61
2023/01/30 07:51:25;;;;;;;15.47;8.27;;;-0.90;99.90;;;;;;4227697;28;21005;-63
2023/01/30 07:53:26;;;;;;;28.23;10.90;;;-1.00;99.90;;;;;;4228839;28;20731;-65
2023/01/30 07:55:27;;;;;;;13.77;7.07;;;-1.00;99.90;;;;;;4228177;28;20248;-61
2023/01/30 07:57:29;;;;;;;31.17;13.97;;;-0.90;99.90;;;;;;4228429;28;20325;-67
2023/01/30 07:59:30;;;;;;;28.80;12.27;;;-1.00;99.90;;;;;;4228221;28;20312;-66
2023/01/30 08:01:31;;;;;;;25.73;10.93;;;-0.90;99.90;;;;;;4228178;28;20408;-70
2023/01/30 08:03:33;;;;;;;48.80;24.17;;;-0.80;99.90;;;;;;4228569;28;20305;-63
2023/01/30 08:05:34;;;;;;;27.43;13.97;;;-0.70;99.90;;;;;;4227956;28;20272;-62
2023/01/30 08:07:35;;;;;;;20.93;10.63;;;-0.70;99.90;;;;;;4228276;28;20314;-65
2023/01/30 08:09:36;;;;;;;28.33;14.73;;;-0.60;99.90;;;;;;4227667;28;20360;-67
2023/01/30 08:11:37;;;;;;;23.97;12.13;;;-0.60;99.90;;;;;;4228599;28;20291;-64
2023/01/30 08:13:38;;;;;;;37.40;19.57;;;-0.40;99.90;;;;;;4227206;28;20788;-67
2023/01/30 08:15:40;;;;;;;13.57;7.00;;;-0.40;99.90;;;;;;4228610;28;20272;-67
2023/01/30 08:17:41;;;;;;;15.53;7.30;;;-0.40;99.90;;;;;;4227371;28;20321;-68
2023/01/30 08:19:42;;;;;;;14.70;7.63;;;-0.50;99.90;;;;;;4227640;28;20424;-60
2023/01/30 08:21:43;;;;;;;15.50;6.13;;;-0.50;99.90;;;;;;4226549;28;20268;-62
2023/01/30 08:23:44;;;;;;;14.43;6.90;;;-0.60;99.90;;;;;;4228101;28;20314;-61
2023/01/30 08:25:46;;;;;;;13.90;6.67;;;-0.60;99.90;;;;;;4226594;28;20252;-62
2023/01/30 08:27:47;;;;;;;18.93;7.00;;;-0.70;99.90;;;;;;4227394;28;20321;-67
2023/01/30 08:29:48;;;;;;;10.50;5.57;;;-0.70;99.90;;;;;;4227791;28;20280;-61
2023/01/30 08:31:49;;;;;;;16.30;7.63;;;-0.70;99.90;;;;;;4227665;28;20767;-66
2023/01/30 08:33:50;;;;;;;12.63;6.07;;;-0.60;99.90;;;;;;4227957;28;20256;-61
2023/01/30 08:35:51;;;;;;;12.43;6.33;;;-0.60;99.90;;;;;;4227872;28;20329;-60
2023/01/30 08:37:52;;;;;;;13.07;6.17;;;-0.50;99.90;;;;;;4227561;28;20329;-60
2023/01/30 08:39:54;;;;;;;14.70;7.40;;;-0.60;99.90;;;;;;4227154;28;20611;-68
2023/01/30 08:41:55;;;;;;;13.67;6.13;;;-0.60;99.90;;;;;;4228421;28;20260;-68
2023/01/30 08:43:56;;;;;;;12.40;5.87;;;-0.50;99.90;;;;;;4226979;28;20248;-62
2023/01/30 08:45:57;;;;;;;14.40;6.23;;;-0.40;99.90;;;;;;4228118;28;20252;-65
2023/01/30 08:48:03;;;;;;;15.13;5.87;;;-0.40;99.90;;;;;;4227030;28;20327;-61
2023/01/30 08:50:04;;;;;;;12.30;6.00;;;-0.40;99.90;;;;;;4228062;28;20264;-62
2023/01/30 08:52:05;;;;;;;12.30;5.97;;;-0.40;99.90;;;;;;4226796;28;20292;-60
2023/01/30 08:54:07;;;;;;;12.63;6.30;;;-0.40;99.90;;;;;;4228026;28;20264;-61
2023/01/30 08:56:08;;;;;;;12.40;5.50;;;-0.40;99.90;;;;;;4226928;28;20297;-61
2023/01/30 08:58:09;;;;;;;9.83;5.97;;;-0.40;99.90;;;;;;4226892;28;20280;-61
2023/01/30 09:00:11;;;;;;;17.90;5.10;;;-0.40;99.90;;;;;;4227407;28;20264;-60
2023/01/30 09:02:12;;;;;;;13.07;5.10;;;-0.30;99.90;;;;;;4227495;28;20264;-60
2023/01/30 09:04:13;;;;;;;10.57;5.10;;;-0.40;99.90;;;;;;4226622;28;20337;-62
2023/01/30 09:06:14;;;;;;;9.70;5.50;;;-0.40;99.90;;;;;;4227380;28;20305;-61
2023/01/30 09:08:16;;;;;;;11.07;5.50;;;-0.40;99.90;;;;;;4227806;28;20696;-61
2023/01/30 09:10:17;;;;;;;10.70;5.83;;;-0.40;99.90;;;;;;4226262;28;20264;-61
2023/01/30 09:12:18;;;;;;;11.23;5.57;;;-0.40;99.90;;;;;;4227182;28;20287;-62
2023/01/30 09:14:19;;;;;;;8.73;5.73;;;-0.30;99.90;;;;;;4226510;28;20264;-60
2023/01/30 09:16:21;;;;;;;12.87;7.50;;;-0.40;99.90;;;;;;4226962;28;20813;-60
2023/01/30 09:18:23;;;;;;;8.33;4.77;;;-0.50;99.90;;;;;;4226148;28;20303;-60
2023/01/30 09:20:24;;;;;;;10.93;5.13;;;-0.50;99.90;;;;;;4227582;28;20268;-61
2023/01/30 09:22:25;;;;;;;11.53;5.43;;;-0.50;99.90;;;;;;4226374;28;20562;-61
2023/01/30 09:24:27;;;;;;;11.63;5.30;;;-0.40;99.90;;;;;;4227798;28;20305;-60
2023/01/30 09:26:28;;;;;;;10.67;5.17;;;-0.30;99.90;;;;;;4225771;28;20323;-60
2023/01/30 09:28:29;;;;;;;10.07;5.00;;;-0.20;99.90;;;;;;4226642;28;20272;-62
2023/01/30 09:30:30;;;;;;;14.20;5.10;;;-0.20;99.90;;;;;;4226851;28;20276;-61
2023/01/30 09:32:31;;;;;;;11.07;4.70;;;-0.10;99.90;;;;;;4226958;28;20348;-60
2023/01/30 09:34:33;;;;;;;19.17;8.57;;;0.00;99.90;;;;;;4227032;28;20264;-60
2023/01/30 09:36:34;;;;;;;8.83;4.13;;;0.00;99.90;;;;;;4226397;28;20268;-61
2023/01/30 09:38:35;;;;;;;9.77;4.47;;;0.00;99.90;;;;;;4227340;28;20256;-61
2023/01/30 09:40:47;;;;;;;28.17;10.47;;;-0.10;99.90;;;;;;4226293;28;20320;-62
2023/01/30 09:43:18;;;;;;;9.37;4.43;;;-0.10;99.90;;;;;;4227461;28;20268;-62
2023/01/30 09:45:57;;;;;;;8.40;4.67;;;0.00;99.90;;;;;;4226791;28;20658;-61
2023/01/30 09:48:21;;;;;;;13.70;6.00;;;0.30;99.90;;;;;;4226627;28;20715;-60
2023/01/30 09:50:37;;;;;;;17.03;7.37;;;0.50;99.90;;;;;;4175536;28;20263;-62
2023/01/30 09:52:57;;;;;;;15.50;7.27;;;0.40;99.90;;;;;;4226377;28;20287;-61
2023/01/30 09:55:29;;;;;;;12.17;5.53;;;0.40;99.90;;;;;;4227518;28;20309;-66
2023/01/30 09:57:31;;;;;;;42.67;18.63;;;0.30;99.90;;;;;;4204409;28;20289;-61
2023/01/30 09:59:56;;;;;;;91.20;32.83;;;0.40;99.90;;;;;;4227590;28;20264;-63
2023/01/30 10:02:41;;;;;;;62.47;20.03;;;0.50;99.90;;;;;;4226367;28;20268;-61
2023/01/30 10:04:45;;;;;;;13.90;6.90;;;0.60;99.90;;;;;;4221469;28;20329;-61
2023/01/30 10:07:09;;;;;;;10.90;4.97;;;0.70;99.90;;;;;;4226935;28;20316;-60
2023/01/30 10:09:36;;;;;;;28.07;12.03;;;0.70;99.90;;;;;;4179374;28;20291;-61
2023/01/30 10:11:46;;;;;;;76.47;27.27;;;0.70;99.90;;;;;;4226807;28;20280;-61
2023/01/30 10:14:11;;;;;;;25.08;10.38;;;0.60;99.90;;;;;;4225656;28;20264;-61
2023/01/30 10:16:26;;;;;;;15.47;7.27;;;0.60;99.90;;;;;;4227361;28;20024;-61
2023/01/30 10:18:52;;;;;;;26.83;11.60;;;0.60;99.90;;;;;;4226160;28;20758;-63
2023/01/30 10:21:05;;;;;;;16.17;6.73;;;0.50;99.90;;;;;;4227171;28;20888;-61
2023/01/30 10:23:09;;;;;;;18.93;8.30;;;0.40;99.90;;;;;;4228725;28;20241;-62
2023/01/30 10:25:32;;;;;;;17.63;8.10;;;0.30;99.90;;;;;;4230344;28;20351;-59
2023/01/30 10:27:36;;;;;;;21.60;13.53;;;0.20;99.90;;;;;;4229256;28;20744;-60
2023/01/30 10:29:40;;;;;;;37.23;25.73;;;0.10;99.90;;;;;;4230474;28;20332;-64
2023/01/30 10:31:49;;;;;;;14.03;8.07;;;0.10;99.90;;;;;;4228092;28;20354;-62
2023/01/30 10:34:08;;;;;;;17.57;7.03;;;0.10;99.90;;;;;;4230246;28;20324;-61
2023/01/30 10:36:17;;;;;;;14.70;6.77;;;0.00;99.90;;;;;;4228685;28;20812;-62
2023/01/30 10:38:26;;;;;;;16.63;8.53;;;-0.10;99.90;;;;;;4230291;28;21049;-61
2023/01/30 10:40:36;;;;;;;17.70;8.30;;;-0.20;99.90;;;;;;4229135;28;20268;-66
2023/01/30 10:42:48;;;;;;;13.90;7.50;;;-0.20;99.90;;;;;;4230271;28;20320;-67
2023/01/30 10:44:49;;;;;;;16.70;7.50;;;-0.20;99.90;;;;;;4228973;28;20280;-68
2023/01/30 10:47:23;;;;;;;13.03;7.23;;;-0.30;99.90;;;;;;4230152;28;20322;-61
2023/01/30 10:49:40;;;;;;;17.00;7.73;;;-0.30;99.90;;;;;;4228846;28;20268;-59